Time;durP1;ratioP1;P1;durP2;ratioP2;P2;SDS_P1;SDS_P2;PMS_P1;PMS_P2;Temp;Humidity;BMP_temperature;BMP_pressure;BME280_temperature;BME280_humidity;BME280_pressure;Samples;Min_cycle;Max_cycle;Signal;HPM_P1;HPM_P2
2023/04/23 00:00:35;;;;;;;3.30;1.08;;;;;;;;;;2051426;28;20042;-61
2023/04/23 00:01:56;;;;;;;2.25;1.10;;;;;;;;;;2051550;28;20039;-61
2023/04/23 00:03:18;;;;;;;5.32;1.20;;;;;;;;;;2055282;28;20026;-61
2023/04/23 00:04:37;;;;;;;3.25;1.33;;;;;;;;;;2055408;28;20409;-61
2023/04/23 00:05:57;;;;;;;1.90;1.13;;;;;;;;;;2053382;28;20027;-62
2023/04/23 00:07:18;;;;;;;5.18;1.20;;;;;;;;;;2054691;28;20031;-62
2023/04/23 00:08:40;;;;;;;2.33;1.38;;;;;;;;;;2054631;28;20031;-61
2023/04/23 00:10:00;;;;;;;2.90;1.15;;;;;;;;;;2053965;28;20396;-62
2023/04/23 00:11:20;;;;;;;3.40;1.27;;;;;;;;;;2052181;28;20039;-61
2023/04/23 00:12:39;;;;;;;4.35;1.45;;;;;;;;;;2055937;28;20023;-62
2023/04/23 00:13:58;;;;;;;2.72;1.38;;;;;;;;;;2056564;28;20063;-61
2023/04/23 00:15:19;;;;;;;5.10;1.15;;;;;;;;;;2052272;28;20773;-61
2023/04/23 00:16:38;;;;;;;2.67;1.05;;;;;;;;;;2051600;28;20496;-61
2023/04/23 00:17:57;;;;;;;1.77;1.00;;;;;;;;;;2052403;28;20023;-61
2023/04/23 00:19:16;;;;;;;3.60;1.08;;;;;;;;;;2055767;28;20102;-60
2023/04/23 00:20:35;;;;;;;5.70;1.35;;;;;;;;;;2053783;28;20035;-61
2023/04/23 00:21:54;;;;;;;4.03;1.10;;;;;;;;;;2052793;28;20059;-61
2023/04/23 00:23:13;;;;;;;1.48;1.15;;;;;;;;;;2054680;28;20039;-61
2023/04/23 00:24:35;;;;;;;2.72;1.25;;;;;;;;;;2054636;28;20039;-63
2023/04/23 00:25:53;;;;;;;2.85;1.08;;;;;;;;;;2052964;28;20026;-62
2023/04/23 00:27:12;;;;;;;3.80;1.10;;;;;;;;;;2053466;28;20028;-62
2023/04/23 00:28:31;;;;;;;2.70;1.10;;;;;;;;;;2052665;28;20035;-62
2023/04/23 00:29:50;;;;;;;3.67;1.65;;;;;;;;;;2052615;28;20039;-61
2023/04/23 00:31:10;;;;;;;2.65;1.20;;;;;;;;;;2055641;28;20488;-61
2023/04/23 00:32:29;;;;;;;1.45;1.10;;;;;;;;;;2052936;28;20034;-61
2023/04/23 00:33:48;;;;;;;6.70;1.38;;;;;;;;;;2054159;28;20036;-62
2023/04/23 00:35:07;;;;;;;2.08;1.27;;;;;;;;;;2053863;28;20035;-61
2023/04/23 00:36:26;;;;;;;2.90;1.27;;;;;;;;;;2050670;28;20027;-61
2023/04/23 00:37:45;;;;;;;5.22;1.20;;;;;;;;;;2055400;28;20058;-62
2023/04/23 00:39:04;;;;;;;4.60;1.30;;;;;;;;;;2053709;28;20067;-61
2023/04/23 00:40:24;;;;;;;2.53;1.35;;;;;;;;;;2050371;28;20515;-61
2023/04/23 00:41:43;;;;;;;1.20;1.10;;;;;;;;;;2053217;28;20034;-61
2023/04/23 00:43:02;;;;;;;4.15;1.50;;;;;;;;;;2053087;28;20035;-61
2023/04/23 00:44:21;;;;;;;4.90;1.35;;;;;;;;;;2052925;28;20035;-61
2023/04/23 00:45:40;;;;;;;2.75;1.00;;;;;;;;;;2055360;28;20027;-61
2023/04/23 00:46:59;;;;;;;4.97;1.30;;;;;;;;;;2055497;28;20461;-61
2023/04/23 00:48:18;;;;;;;1.63;1.35;;;;;;;;;;2053510;28;20113;-61
2023/04/23 00:49:38;;;;;;;4.32;1.48;;;;;;;;;;2054525;28;20422;-62
2023/04/23 00:50:58;;;;;;;2.22;1.45;;;;;;;;;;2053776;28;20127;-61
2023/04/23 00:52:17;;;;;;;2.65;1.23;;;;;;;;;;2052045;28;20158;-61
2023/04/23 00:53:36;;;;;;;3.25;1.40;;;;;;;;;;2053028;28;20122;-61
2023/04/23 00:54:55;;;;;;;5.00;1.20;;;;;;;;;;2052365;28;20058;-62
2023/04/23 00:56:14;;;;;;;1.83;1.30;;;;;;;;;;2054240;28;20055;-61
2023/04/23 00:57:34;;;;;;;4.47;1.42;;;;;;;;;;2048393;28;20043;-61
2023/04/23 00:58:53;;;;;;;3.17;1.60;;;;;;;;;;2049927;28;20030;-61
2023/04/23 01:00:12;;;;;;;2.50;1.10;;;;;;;;;;2053566;28;20035;-61
2023/04/23 01:01:32;;;;;;;2.72;1.40;;;;;;;;;;2052556;28;20062;-62
2023/04/23 01:02:51;;;;;;;1.38;1.20;;;;;;;;;;2053902;28;20484;-61
2023/04/23 01:04:14;;;;;;;2.08;1.08;;;;;;;;;;2051968;28;20054;-67
2023/04/23 01:05:33;;;;;;;6.18;1.40;;;;;;;;;;2053426;28;20039;-61
2023/04/23 01:06:54;;;;;;;3.25;1.50;;;;;;;;;;2053821;28;20046;-61
2023/04/23 01:08:14;;;;;;;4.35;1.45;;;;;;;;;;2050550;28;20118;-62
2023/04/23 01:09:33;;;;;;;3.92;1.20;;;;;;;;;;2053443;28;20043;-63
2023/04/23 01:10:53;;;;;;;2.50;1.13;;;;;;;;;;2053029;28;20488;-62
2023/04/23 01:12:12;;;;;;;10.10;1.42;;;;;;;;;;2055443;28;20492;-62
2023/04/23 01:13:31;;;;;;;5.28;1.60;;;;;;;;;;2056547;28;20038;-61
2023/04/23 01:14:50;;;;;;;4.20;1.30;;;;;;;;;;2052377;28;20027;-60
2023/04/23 01:16:10;;;;;;;3.63;1.38;;;;;;;;;;2053581;28;20039;-61
2023/04/23 01:17:29;;;;;;;4.70;1.70;;;;;;;;;;2053966;28;20059;-61
2023/04/23 01:18:48;;;;;;;3.05;1.10;;;;;;;;;;2054109;28;20026;-65
2023/04/23 01:20:08;;;;;;;4.82;1.50;;;;;;;;;;2052082;28;20496;-61
2023/04/23 01:21:28;;;;;;;1.67;1.30;;;;;;;;;;2053951;28;20042;-61
2023/04/23 01:22:46;;;;;;;1.45;1.30;;;;;;;;;;2052892;28;20074;-61
2023/04/23 01:24:06;;;;;;;1.33;1.20;;;;;;;;;;2053856;28;20035;-62
2023/04/23 01:25:25;;;;;;;3.05;1.17;;;;;;;;;;2054507;28;20497;-61
2023/04/23 01:26:44;;;;;;;1.40;1.30;;;;;;;;;;2052503;28;20042;-61
2023/04/23 01:28:05;;;;;;;2.28;1.67;;;;;;;;;;2050315;28;20035;-61
2023/04/23 01:29:24;;;;;;;3.53;1.40;;;;;;;;;;2053898;28;20027;-62
2023/04/23 01:30:44;;;;;;;3.30;1.52;;;;;;;;;;2052737;28;20027;-61
2023/04/23 01:32:03;;;;;;;3.10;1.45;;;;;;;;;;2053051;28;20027;-62
2023/04/23 01:33:22;;;;;;;9.18;1.45;;;;;;;;;;2054389;28;20022;-61
2023/04/23 01:34:41;;;;;;;1.48;1.17;;;;;;;;;;2050357;28;20055;-61
2023/04/23 01:36:01;;;;;;;2.60;1.25;;;;;;;;;;2053995;28;20070;-61
2023/04/23 01:37:20;;;;;;;6.60;1.65;;;;;;;;;;2055738;28;20027;-61
2023/04/23 01:38:39;;;;;;;3.50;1.23;;;;;;;;;;2051444;28;20408;-61
2023/04/23 01:39:59;;;;;;;2.45;1.33;;;;;;;;;;2053666;28;20034;-61
2023/04/23 01:41:19;;;;;;;2.85;1.60;;;;;;;;;;2052034;28;20023;-62
2023/04/23 01:42:37;;;;;;;1.60;1.27;;;;;;;;;;2052210;28;20039;-61
2023/04/23 01:43:57;;;;;;;1.52;1.30;;;;;;;;;;2053163;28;20034;-61
2023/04/23 01:45:19;;;;;;;4.00;1.30;;;;;;;;;;2052561;28;20031;-61
2023/04/23 01:46:38;;;;;;;3.60;1.40;;;;;;;;;;2050717;28;20042;-61
2023/04/23 01:47:58;;;;;;;3.25;1.20;;;;;;;;;;2054035;28;20031;-62
2023/04/23 01:49:17;;;;;;;4.10;1.42;;;;;;;;;;2055400;28;20035;-61
2023/04/23 01:50:36;;;;;;;2.20;1.38;;;;;;;;;;2051978;28;20038;-61
2023/04/23 01:51:55;;;;;;;2.85;1.38;;;;;;;;;;2052419;28;20026;-61
2023/04/23 01:53:14;;;;;;;2.60;1.48;;;;;;;;;;2051256;28;20042;-61
2023/04/23 01:54:33;;;;;;;4.50;1.90;;;;;;;;;;2052509;28;20027;-61
2023/04/23 01:55:54;;;;;;;5.40;1.70;;;;;;;;;;2048061;28;20762;-61
2023/04/23 01:57:13;;;;;;;4.25;1.95;;;;;;;;;;2054090;28;20030;-61
2023/04/23 01:58:32;;;;;;;4.13;1.73;;;;;;;;;;2052694;28;20038;-61
2023/04/23 01:59:57;;;;;;;6.00;1.73;;;;;;;;;;2052366;28;20039;-61
2023/04/23 02:01:16;;;;;;;5.88;1.50;;;;;;;;;;2054862;28;20031;-64
2023/04/23 02:02:36;;;;;;;3.13;1.50;;;;;;;;;;2053081;28;20204;-61
2023/04/23 02:03:55;;;;;;;5.00;1.58;;;;;;;;;;2051849;28;20050;-61
2023/04/23 02:05:17;;;;;;;6.10;1.63;;;;;;;;;;2051318;28;20039;-61
2023/04/23 02:06:36;;;;;;;3.70;1.30;;;;;;;;;;2052883;28;20027;-66
2023/04/23 02:07:55;;;;;;;2.83;1.25;;;;;;;;;;2052666;28;20052;-61
2023/04/23 02:09:14;;;;;;;1.65;1.27;;;;;;;;;;2054431;28;20455;-61
2023/04/23 02:10:33;;;;;;;2.78;1.35;;;;;;;;;;2052031;28;20039;-60
2023/04/23 02:11:52;;;;;;;1.65;1.25;;;;;;;;;;2052279;28;20035;-61
2023/04/23 02:13:12;;;;;;;5.88;1.55;;;;;;;;;;2048473;28;20141;-61
2023/04/23 02:14:31;;;;;;;2.47;1.08;;;;;;;;;;2049568;28;20121;-61
2023/04/23 02:15:50;;;;;;;4.50;1.58;;;;;;;;;;2051216;28;20030;-61
2023/04/23 02:17:09;;;;;;;2.72;1.40;;;;;;;;;;2052231;28;20114;-61
2023/04/23 02:18:28;;;;;;;1.52;1.27;;;;;;;;;;2054460;28;20408;-61
2023/04/23 02:19:47;;;;;;;3.53;1.60;;;;;;;;;;2052486;28;20038;-62
2023/04/23 02:21:06;;;;;;;3.28;1.55;;;;;;;;;;2053869;28;20027;-62
2023/04/23 02:22:27;;;;;;;1.85;1.50;;;;;;;;;;2053451;28;20031;-61
2023/04/23 02:23:46;;;;;;;5.57;1.50;;;;;;;;;;2053148;28;20117;-62
2023/04/23 02:25:05;;;;;;;3.70;1.95;;;;;;;;;;2053997;28;20039;-61
2023/04/23 02:26:25;;;;;;;6.15;1.85;;;;;;;;;;2053300;28;20039;-61
2023/04/23 02:27:44;;;;;;;5.07;1.38;;;;;;;;;;2051920;28;20023;-61
2023/04/23 02:29:02;;;;;;;4.40;1.92;;;;;;;;;;2051510;28;20411;-60
2023/04/23 02:30:21;;;;;;;3.05;1.50;;;;;;;;;;2052328;28;20583;-61
2023/04/23 02:31:40;;;;;;;5.03;1.70;;;;;;;;;;2053391;28;20031;-61
2023/04/23 02:32:59;;;;;;;4.15;1.80;;;;;;;;;;2051495;28;20035;-60
2023/04/23 02:34:18;;;;;;;3.35;1.67;;;;;;;;;;2051222;28;20039;-61
2023/04/23 02:35:37;;;;;;;4.95;1.30;;;;;;;;;;2051564;28;20039;-65
2023/04/23 02:36:56;;;;;;;4.70;1.52;;;;;;;;;;2054104;28;20026;-62
2023/04/23 02:38:15;;;;;;;5.47;1.80;;;;;;;;;;2051782;28;20027;-61
2023/04/23 02:39:34;;;;;;;4.05;1.80;;;;;;;;;;2052175;28;20031;-61
2023/04/23 02:40:53;;;;;;;6.63;1.60;;;;;;;;;;2051696;28;20031;-61
2023/04/23 02:42:12;;;;;;;7.00;2.45;;;;;;;;;;2050390;28;20423;-61
2023/04/23 02:43:31;;;;;;;4.18;1.40;;;;;;;;;;2052608;28;20118;-61
2023/04/23 02:44:50;;;;;;;7.82;1.70;;;;;;;;;;2055553;28;20480;-61
2023/04/23 02:46:09;;;;;;;1.92;1.45;;;;;;;;;;2051934;28;20044;-61
2023/04/23 02:47:30;;;;;;;4.65;1.50;;;;;;;;;;2052408;28;20118;-61
2023/04/23 02:48:48;;;;;;;2.58;1.60;;;;;;;;;;2049775;28;20035;-61
2023/04/23 02:50:07;;;;;;;8.07;1.42;;;;;;;;;;2051422;28;20039;-60
2023/04/23 02:51:26;;;;;;;5.00;1.40;;;;;;;;;;2054982;28;20031;-61
2023/04/23 02:52:46;;;;;;;2.70;1.27;;;;;;;;;;2051315;28;20101;-61
2023/04/23 02:54:05;;;;;;;4.85;1.70;;;;;;;;;;2053123;28;20829;-61
2023/04/23 02:55:24;;;;;;;2.67;1.80;;;;;;;;;;2051864;28;20027;-61
2023/04/23 02:56:43;;;;;;;5.03;1.70;;;;;;;;;;2052707;28;20034;-61
2023/04/23 02:58:02;;;;;;;4.65;1.38;;;;;;;;;;2051645;28;20038;-61
2023/04/23 02:59:21;;;;;;;3.28;1.60;;;;;;;;;;2054190;28;20031;-61
2023/04/23 03:00:40;;;;;;;3.40;1.70;;;;;;;;;;2052318;28;20042;-61
2023/04/23 03:01:59;;;;;;;1.75;1.17;;;;;;;;;;2050848;28;20031;-61
2023/04/23 03:03:18;;;;;;;3.95;1.40;;;;;;;;;;2054774;28;20027;-61
2023/04/23 03:04:37;;;;;;;2.63;1.17;;;;;;;;;;2051307;28;20075;-63
2023/04/23 03:05:56;;;;;;;2.92;1.50;;;;;;;;;;2049415;28;20064;-61
2023/04/23 03:07:16;;;;;;;2.97;1.40;;;;;;;;;;2053660;28;20498;-60
2023/04/23 03:08:35;;;;;;;4.00;1.23;;;;;;;;;;2051645;28;20087;-61
2023/04/23 03:09:54;;;;;;;5.60;2.00;;;;;;;;;;2053200;28;20030;-61
2023/04/23 03:11:12;;;;;;;5.55;1.85;;;;;;;;;;2052303;28;20034;-61
2023/04/23 03:12:31;;;;;;;6.43;1.35;;;;;;;;;;2052923;28;20038;-61
2023/04/23 03:13:50;;;;;;;3.35;1.48;;;;;;;;;;2048441;28;20670;-62
2023/04/23 03:15:10;;;;;;;3.42;1.50;;;;;;;;;;2052790;28;20030;-61
2023/04/23 03:16:30;;;;;;;4.93;1.50;;;;;;;;;;2051350;28;20035;-61
2023/04/23 03:17:51;;;;;;;3.28;1.50;;;;;;;;;;2052829;28;20031;-61
2023/04/23 03:19:10;;;;;;;6.82;1.63;;;;;;;;;;2053487;28;20034;-61
2023/04/23 03:20:29;;;;;;;1.98;1.38;;;;;;;;;;2053286;28;20117;-61
2023/04/23 03:21:48;;;;;;;2.97;1.40;;;;;;;;;;2051286;28;20031;-61
2023/04/23 03:23:08;;;;;;;3.15;1.80;;;;;;;;;;2050696;28;20039;-61
2023/04/23 03:24:30;;;;;;;4.05;1.88;;;;;;;;;;2052903;28;20026;-61
2023/04/23 03:25:49;;;;;;;8.40;1.92;;;;;;;;;;2050627;28;20651;-61
2023/04/23 03:27:08;;;;;;;5.82;1.50;;;;;;;;;;2052742;28;20105;-61
2023/04/23 03:28:28;;;;;;;4.28;1.52;;;;;;;;;;2051311;28;20109;-61
2023/04/23 03:29:47;;;;;;;5.20;1.50;;;;;;;;;;2049545;28;20036;-62
2023/04/23 03:31:06;;;;;;;4.03;1.60;;;;;;;;;;2053468;28;20023;-61
2023/04/23 03:32:25;;;;;;;2.65;1.70;;;;;;;;;;2053073;28;20102;-61
2023/04/23 03:33:44;;;;;;;2.70;1.90;;;;;;;;;;2053665;28;20031;-61
2023/04/23 03:35:03;;;;;;;3.03;1.83;;;;;;;;;;2053163;28;20054;-62
2023/04/23 03:36:22;;;;;;;3.67;1.60;;;;;;;;;;2051896;28;20436;-61
2023/04/23 03:37:41;;;;;;;2.95;1.70;;;;;;;;;;2053924;28;20031;-63
2023/04/23 03:39:01;;;;;;;4.82;1.48;;;;;;;;;;2052358;28;20054;-61
2023/04/23 03:40:20;;;;;;;2.88;1.65;;;;;;;;;;2050194;28;20462;-62
2023/04/23 03:41:39;;;;;;;2.72;1.67;;;;;;;;;;2053283;28;20075;-61
2023/04/23 03:42:58;;;;;;;2.00;1.50;;;;;;;;;;2054759;28;20028;-61
2023/04/23 03:44:17;;;;;;;2.85;1.58;;;;;;;;;;2051035;28;20243;-61
2023/04/23 03:45:36;;;;;;;2.10;1.33;;;;;;;;;;2053514;28;20121;-61
2023/04/23 03:46:55;;;;;;;4.32;1.90;;;;;;;;;;2052947;28;20039;-61
2023/04/23 03:48:14;;;;;;;4.15;1.58;;;;;;;;;;2051533;28;20039;-61
2023/04/23 03:49:33;;;;;;;4.13;1.80;;;;;;;;;;2053146;28;20070;-61
2023/04/23 03:50:52;;;;;;;4.22;1.40;;;;;;;;;;2053415;28;20035;-62
2023/04/23 03:52:11;;;;;;;3.55;1.73;;;;;;;;;;2051709;28;20494;-61
2023/04/23 03:53:30;;;;;;;4.35;1.92;;;;;;;;;;2052863;28;20121;-61
2023/04/23 03:54:49;;;;;;;3.38;1.40;;;;;;;;;;2049897;28;20146;-59
2023/04/23 03:56:08;;;;;;;2.63;1.50;;;;;;;;;;2052162;28;20106;-61
2023/04/23 03:57:27;;;;;;;4.22;1.92;;;;;;;;;;2050487;28;20103;-61
2023/04/23 03:58:46;;;;;;;3.50;1.67;;;;;;;;;;2052226;28;20042;-61
2023/04/23 04:00:12;;;;;;;5.00;2.05;;;;;;;;;;2052292;28;20047;-61
2023/04/23 04:01:31;;;;;;;2.47;1.33;;;;;;;;;;2054543;28;20126;-62
2023/04/23 04:02:50;;;;;;;6.05;1.73;;;;;;;;;;2053619;28;20098;-61
2023/04/23 04:04:09;;;;;;;4.32;1.63;;;;;;;;;;2050716;28;20532;-61
2023/04/23 04:05:28;;;;;;;4.05;1.40;;;;;;;;;;2052965;28;20042;-61
2023/04/23 04:06:47;;;;;;;4.15;1.60;;;;;;;;;;2054272;28;20035;-61
2023/04/23 04:08:06;;;;;;;6.30;1.60;;;;;;;;;;2052267;28;20034;-61
2023/04/23 04:09:25;;;;;;;2.58;1.40;;;;;;;;;;2051047;28;20039;-62
2023/04/23 04:10:44;;;;;;;3.45;2.10;;;;;;;;;;2049409;28;20035;-61
2023/04/23 04:12:04;;;;;;;2.92;1.27;;;;;;;;;;2050653;28;20086;-61
2023/04/23 04:13:22;;;;;;;4.72;2.08;;;;;;;;;;2051483;28;20043;-62
2023/04/23 04:14:42;;;;;;;5.50;1.35;;;;;;;;;;2047276;28;20031;-62
2023/04/23 04:16:01;;;;;;;2.65;1.30;;;;;;;;;;2051630;28;20031;-61
2023/04/23 04:17:20;;;;;;;1.75;1.60;;;;;;;;;;2049685;28;20023;-61
2023/04/23 04:18:39;;;;;;;4.85;1.55;;;;;;;;;;2051259;28;20055;-61
2023/04/23 04:19:58;;;;;;;4.05;1.75;;;;;;;;;;2048982;28;20777;-61
2023/04/23 04:21:17;;;;;;;4.65;1.45;;;;;;;;;;2053713;28;20023;-61
2023/04/23 04:22:36;;;;;;;3.70;1.70;;;;;;;;;;2052186;28;20035;-61
2023/04/23 04:23:55;;;;;;;4.43;1.70;;;;;;;;;;2051439;28;20451;-61
2023/04/23 04:25:15;;;;;;;9.05;2.03;;;;;;;;;;2053975;28;20030;-61
2023/04/23 04:26:34;;;;;;;6.80;2.20;;;;;;;;;;2049194;28;20035;-62
2023/04/23 04:27:53;;;;;;;6.80;1.92;;;;;;;;;;2053463;28;20034;-61
2023/04/23 04:29:12;;;;;;;2.90;1.60;;;;;;;;;;2053133;28;20484;-61
2023/04/23 04:30:31;;;;;;;8.20;2.13;;;;;;;;;;2052868;28;20046;-61
2023/04/23 04:31:50;;;;;;;4.18;1.67;;;;;;;;;;2051522;28;20054;-61
2023/04/23 04:33:09;;;;;;;3.20;1.95;;;;;;;;;;2052644;28;20408;-61
2023/04/23 04:34:28;;;;;;;3.30;1.50;;;;;;;;;;2053116;28;20077;-61
2023/04/23 04:35:48;;;;;;;5.53;1.60;;;;;;;;;;2054743;28;20023;-61
2023/04/23 04:37:09;;;;;;;2.05;1.60;;;;;;;;;;2052417;28;20030;-61
2023/04/23 04:38:28;;;;;;;4.20;2.05;;;;;;;;;;2053012;28;20477;-61
2023/04/23 04:39:48;;;;;;;2.47;1.73;;;;;;;;;;2055213;28;20039;-61
2023/04/23 04:41:06;;;;;;;2.92;1.92;;;;;;;;;;2052252;28;20034;-61
2023/04/23 04:42:26;;;;;;;2.67;2.00;;;;;;;;;;2054484;28;20031;-62
2023/04/23 04:43:45;;;;;;;5.22;1.77;;;;;;;;;;2054656;28;20026;-61
2023/04/23 04:45:04;;;;;;;5.50;2.00;;;;;;;;;;2054132;28;20027;-61
2023/04/23 04:46:28;;;;;;;3.67;1.42;;;;;;;;;;2053503;28;20054;-62
2023/04/23 04:47:47;;;;;;;3.30;1.60;;;;;;;;;;2048369;28;20026;-62
2023/04/23 04:49:07;;;;;;;4.32;1.70;;;;;;;;;;2053696;28;20503;-61
2023/04/23 04:50:26;;;;;;;2.45;1.27;;;;;;;;;;2051324;28;20087;-61
2023/04/23 04:51:45;;;;;;;5.38;1.63;;;;;;;;;;2052497;28;20026;-62
2023/04/23 04:53:04;;;;;;;4.95;1.55;;;;;;;;;;2056300;28;21148;-61
2023/04/23 04:54:23;;;;;;;4.05;1.95;;;;;;;;;;2051866;28;20117;-61
2023/04/23 04:55:42;;;;;;;3.53;1.73;;;;;;;;;;2050688;28;20035;-63
2023/04/23 04:57:01;;;;;;;4.43;1.85;;;;;;;;;;2053290;28;20506;-61
2023/04/23 04:58:20;;;;;;;8.98;1.80;;;;;;;;;;2052165;28;21626;-61
2023/04/23 04:59:39;;;;;;;4.50;1.58;;;;;;;;;;2055305;28;20039;-61
2023/04/23 05:00:59;;;;;;;4.97;2.05;;;;;;;;;;2054541;28;20028;-63
2023/04/23 05:02:18;;;;;;;3.88;1.70;;;;;;;;;;2052512;28;20034;-61
2023/04/23 05:03:38;;;;;;;5.50;1.90;;;;;;;;;;2053554;28;20027;-61
2023/04/23 05:04:57;;;;;;;2.78;1.58;;;;;;;;;;2053741;28;20031;-62
2023/04/23 05:06:16;;;;;;;3.13;1.50;;;;;;;;;;2053489;28;20023;-62
2023/04/23 05:07:35;;;;;;;4.78;2.33;;;;;;;;;;2053637;28;20035;-62
2023/04/23 05:08:54;;;;;;;4.93;1.55;;;;;;;;;;2053649;28;20031;-62
2023/04/23 05:10:13;;;;;;;3.28;1.50;;;;;;;;;;2052111;28;20030;-62
2023/04/23 05:11:32;;;;;;;7.57;2.20;;;;;;;;;;2056207;28;20042;-62
2023/04/23 05:12:51;;;;;;;3.75;1.80;;;;;;;;;;2050457;28;20488;-62
2023/04/23 05:14:10;;;;;;;4.07;1.70;;;;;;;;;;2053667;28;20030;-62
2023/04/23 05:15:29;;;;;;;3.60;1.17;;;;;;;;;;2050072;28;20038;-62
2023/04/23 05:16:48;;;;;;;6.07;1.67;;;;;;;;;;2050098;28;20034;-62
2023/04/23 05:18:08;;;;;;;6.78;1.60;;;;;;;;;;2050384;28;20043;-62
2023/04/23 05:19:27;;;;;;;4.03;1.77;;;;;;;;;;2052132;28;20031;-62
2023/04/23 05:20:46;;;;;;;4.10;1.60;;;;;;;;;;2053842;28;20023;-62
2023/04/23 05:22:05;;;;;;;4.40;1.42;;;;;;;;;;2054761;28;20110;-61
2023/04/23 05:23:24;;;;;;;5.65;1.77;;;;;;;;;;2053370;28;20085;-62
2023/04/23 05:24:44;;;;;;;3.40;1.60;;;;;;;;;;2053438;28;20465;-62
2023/04/23 05:26:03;;;;;;;2.90;1.75;;;;;;;;;;2052260;28;20071;-62
2023/04/23 05:27:22;;;;;;;1.42;1.35;;;;;;;;;;2052843;28;20042;-63
2023/04/23 05:28:41;;;;;;;2.67;1.23;;;;;;;;;;2051137;28;20035;-63
2023/04/23 05:30:04;;;;;;;3.50;1.45;;;;;;;;;;2049047;28;20401;-62
2023/04/23 05:31:24;;;;;;;2.15;1.92;;;;;;;;;;2053416;28;20480;-63
2023/04/23 05:32:43;;;;;;;5.53;1.77;;;;;;;;;;2053826;28;20031;-62
2023/04/23 05:34:02;;;;;;;4.57;1.70;;;;;;;;;;2052036;28;20027;-62
2023/04/23 05:35:21;;;;;;;2.15;1.40;;;;;;;;;;2053197;28;20602;-62
2023/04/23 05:36:40;;;;;;;4.75;1.85;;;;;;;;;;2049046;28;20024;-63
2023/04/23 05:38:00;;;;;;;2.78;1.88;;;;;;;;;;2050714;28;20023;-63
2023/04/23 05:39:19;;;;;;;3.08;1.50;;;;;;;;;;2053051;28;20097;-63
2023/04/23 05:40:38;;;;;;;2.90;1.83;;;;;;;;;;2053658;28;20042;-62
2023/04/23 05:41:57;;;;;;;2.92;1.67;;;;;;;;;;2052010;28;20035;-62
2023/04/23 05:43:16;;;;;;;2.10;1.90;;;;;;;;;;2052629;28;20113;-62
2023/04/23 05:44:35;;;;;;;3.15;1.70;;;;;;;;;;2051080;28;20118;-62
2023/04/23 05:45:54;;;;;;;4.30;1.63;;;;;;;;;;2052139;28;21086;-62
2023/04/23 05:47:13;;;;;;;4.32;1.60;;;;;;;;;;2053219;28;20445;-63
2023/04/23 05:48:32;;;;;;;4.32;1.50;;;;;;;;;;2053141;28;20489;-62
2023/04/23 05:49:51;;;;;;;3.30;2.00;;;;;;;;;;2052662;28;20035;-62
2023/04/23 05:51:10;;;;;;;6.15;1.50;;;;;;;;;;2052219;28;20051;-62
2023/04/23 05:52:32;;;;;;;3.92;1.75;;;;;;;;;;2053599;28;20492;-63
2023/04/23 05:53:51;;;;;;;3.65;1.70;;;;;;;;;;2050637;28;20023;-62
2023/04/23 05:55:10;;;;;;;4.00;1.73;;;;;;;;;;2054523;28;20567;-62
2023/04/23 05:56:29;;;;;;;5.63;1.40;;;;;;;;;;2051786;28;20508;-62
2023/04/23 05:57:48;;;;;;;3.53;1.80;;;;;;;;;;2050808;28;20030;-63
2023/04/23 05:59:07;;;;;;;2.80;1.60;;;;;;;;;;2052497;28;20489;-63
2023/04/23 06:00:26;;;;;;;3.53;1.58;;;;;;;;;;2055256;28;20412;-62
2023/04/23 06:01:46;;;;;;;4.97;2.10;;;;;;;;;;2050559;28;20043;-62
2023/04/23 06:03:06;;;;;;;3.67;1.80;;;;;;;;;;2047309;28;20027;-63
2023/04/23 06:04:25;;;;;;;4.80;1.60;;;;;;;;;;2052309;28;20561;-62
2023/04/23 06:05:44;;;;;;;3.08;1.90;;;;;;;;;;2052475;28;20030;-62
2023/04/23 06:07:03;;;;;;;4.35;1.75;;;;;;;;;;2053738;28;20043;-63
2023/04/23 06:08:22;;;;;;;4.07;1.52;;;;;;;;;;2052702;28;20039;-63
2023/04/23 06:09:41;;;;;;;1.88;1.40;;;;;;;;;;2054733;28;20058;-62
2023/04/23 06:11:00;;;;;;;5.15;1.98;;;;;;;;;;2052831;28;20023;-62
2023/04/23 06:12:20;;;;;;;1.90;1.50;;;;;;;;;;2051580;28;20035;-63
2023/04/23 06:13:39;;;;;;;6.20;2.10;;;;;;;;;;2051882;28;20023;-63
2023/04/23 06:14:58;;;;;;;3.00;1.60;;;;;;;;;;2054209;28;20543;-62
2023/04/23 06:16:18;;;;;;;3.03;2.22;;;;;;;;;;2050253;28;20039;-62
2023/04/23 06:17:37;;;;;;;3.00;1.65;;;;;;;;;;2052473;28;20035;-62
2023/04/23 06:18:56;;;;;;;3.22;1.95;;;;;;;;;;2052476;28;20034;-63
2023/04/23 06:20:15;;;;;;;2.65;1.60;;;;;;;;;;2052911;28;20042;-63
2023/04/23 06:21:34;;;;;;;2.90;1.80;;;;;;;;;;2052902;28;20031;-64
2023/04/23 06:22:53;;;;;;;3.53;1.63;;;;;;;;;;2051893;28;20034;-63
2023/04/23 06:24:12;;;;;;;5.82;1.92;;;;;;;;;;2053135;28;20035;-63
2023/04/23 06:25:31;;;;;;;3.33;2.15;;;;;;;;;;2050698;28;20497;-63
2023/04/23 06:26:50;;;;;;;2.75;1.75;;;;;;;;;;2050764;28;20070;-63
2023/04/23 06:28:09;;;;;;;3.20;1.73;;;;;;;;;;2051255;28;20030;-63
2023/04/23 06:29:28;;;;;;;4.00;2.03;;;;;;;;;;2051377;28;20042;-63
2023/04/23 06:30:47;;;;;;;3.88;1.73;;;;;;;;;;2052923;28;20047;-63
2023/04/23 06:32:06;;;;;;;4.95;1.88;;;;;;;;;;2051776;28;21089;-63
2023/04/23 06:33:25;;;;;;;6.85;1.80;;;;;;;;;;2052267;28;20031;-63
2023/04/23 06:34:44;;;;;;;6.55;1.60;;;;;;;;;;2052198;28;20030;-63
2023/04/23 06:36:04;;;;;;;8.15;1.88;;;;;;;;;;2052049;28;20504;-64
2023/04/23 06:37:25;;;;;;;3.05;1.65;;;;;;;;;;2051871;28;20034;-64
2023/04/23 06:38:43;;;;;;;4.22;1.67;;;;;;;;;;2050320;28;20393;-64
2023/04/23 06:40:02;;;;;;;3.88;1.60;;;;;;;;;;2045273;28;20051;-64
2023/04/23 06:41:22;;;;;;;6.63;1.98;;;;;;;;;;2047728;28;20114;-64
2023/04/23 06:42:41;;;;;;;3.33;1.60;;;;;;;;;;2052440;28;20444;-64
2023/04/23 06:44:00;;;;;;;3.30;1.92;;;;;;;;;;2052823;28;20027;-64
2023/04/23 06:45:19;;;;;;;2.25;2.05;;;;;;;;;;2048376;28;20031;-64
2023/04/23 06:46:38;;;;;;;3.00;1.73;;;;;;;;;;2043457;28;20440;-64
2023/04/23 06:47:57;;;;;;;3.17;1.52;;;;;;;;;;2049554;28;20046;-64
2023/04/23 06:49:16;;;;;;;3.35;1.77;;;;;;;;;;2050843;28;20559;-64
2023/04/23 06:50:35;;;;;;;2.20;2.00;;;;;;;;;;2050848;28;20043;-64
2023/04/23 06:51:54;;;;;;;3.30;1.98;;;;;;;;;;2051715;28;20039;-64
2023/04/23 06:53:14;;;;;;;4.65;1.83;;;;;;;;;;2051461;28;20034;-64
2023/04/23 06:54:36;;;;;;;2.75;1.63;;;;;;;;;;2051824;28;20058;-64
2023/04/23 06:55:55;;;;;;;3.58;1.73;;;;;;;;;;2050494;28;20031;-64
2023/04/23 06:57:15;;;;;;;1.95;1.70;;;;;;;;;;2051104;28;20427;-64
2023/04/23 06:58:34;;;;;;;4.70;1.98;;;;;;;;;;2051448;28;20035;-64
2023/04/23 06:59:52;;;;;;;1.80;1.58;;;;;;;;;;2052546;28;20489;-64
2023/04/23 07:01:12;;;;;;;4.65;1.95;;;;;;;;;;2053473;28;20579;-64
2023/04/23 07:02:30;;;;;;;2.78;1.60;;;;;;;;;;2054125;28;20039;-64
2023/04/23 07:03:53;;;;;;;3.75;1.60;;;;;;;;;;2052171;28;20035;-64
2023/04/23 07:05:12;;;;;;;6.75;2.67;;;;;;;;;;2051885;28;20404;-64
2023/04/23 07:06:33;;;;;;;3.30;1.73;;;;;;;;;;2050177;28;20125;-65
2023/04/23 07:07:52;;;;;;;4.65;1.92;;;;;;;;;;2060198;28;20027;-64
2023/04/23 07:09:11;;;;;;;3.63;1.90;;;;;;;;;;2054529;28;20031;-65
2023/04/23 07:10:30;;;;;;;2.20;1.85;;;;;;;;;;2052364;28;20117;-65
2023/04/23 07:11:49;;;;;;;4.70;1.90;;;;;;;;;;2052041;28;21158;-65
2023/04/23 07:13:09;;;;;;;3.15;1.70;;;;;;;;;;2049570;28;20166;-64
2023/04/23 07:14:28;;;;;;;3.67;1.58;;;;;;;;;;2051757;28;20488;-64
2023/04/23 07:15:47;;;;;;;4.10;1.40;;;;;;;;;;2051436;28;20046;-64
2023/04/23 07:17:06;;;;;;;2.08;1.73;;;;;;;;;;2052540;28;20034;-64
2023/04/23 07:18:26;;;;;;;2.78;1.33;;;;;;;;;;2051040;28;20034;-64
2023/04/23 07:19:44;;;;;;;4.00;1.80;;;;;;;;;;2051343;28;20409;-65
2023/04/23 07:21:04;;;;;;;3.75;1.98;;;;;;;;;;2051191;28;20035;-64
2023/04/23 07:22:23;;;;;;;7.47;2.15;;;;;;;;;;2053425;28;20130;-64
2023/04/23 07:23:42;;;;;;;1.98;1.20;;;;;;;;;;2050608;28;20031;-64
2023/04/23 07:25:02;;;;;;;2.25;1.45;;;;;;;;;;2052426;28;20030;-64
2023/04/23 07:26:22;;;;;;;2.25;1.70;;;;;;;;;;2050578;28;20035;-64
2023/04/23 07:27:41;;;;;;;1.80;1.52;;;;;;;;;;2047570;28;20059;-64
2023/04/23 07:29:01;;;;;;;1.98;1.60;;;;;;;;;;2048726;28;20035;-64
2023/04/23 07:30:20;;;;;;;3.33;1.88;;;;;;;;;;2048846;28;20070;-65
2023/04/23 07:31:40;;;;;;;3.80;1.60;;;;;;;;;;2051353;28;20373;-64
2023/04/23 07:33:00;;;;;;;2.53;1.27;;;;;;;;;;2050188;28;20038;-65
2023/04/23 07:34:19;;;;;;;1.67;1.30;;;;;;;;;;2049960;28;20440;-65
2023/04/23 07:35:38;;;;;;;1.40;1.30;;;;;;;;;;2050234;28;20492;-64
2023/04/23 07:36:57;;;;;;;3.38;1.25;;;;;;;;;;2050989;28;20042;-64
2023/04/23 07:38:16;;;;;;;2.72;1.10;;;;;;;;;;2051460;28;20032;-64
2023/04/23 07:39:35;;;;;;;2.45;1.40;;;;;;;;;;2052406;28;20038;-63
2023/04/23 07:40:54;;;;;;;4.30;1.20;;;;;;;;;;2053406;28;20496;-65
2023/04/23 07:42:13;;;;;;;2.72;1.35;;;;;;;;;;2050929;28;20066;-65
2023/04/23 07:43:32;;;;;;;1.70;1.05;;;;;;;;;;2051899;28;20521;-65
2023/04/23 07:44:51;;;;;;;5.05;1.65;;;;;;;;;;2051877;28;20055;-65
2023/04/23 07:46:10;;;;;;;2.35;1.33;;;;;;;;;;2050167;28;20030;-64
2023/04/23 07:47:32;;;;;;;3.75;1.50;;;;;;;;;;2049085;28;20039;-66
2023/04/23 07:48:52;;;;;;;3.45;1.30;;;;;;;;;;2048955;28;20659;-65
2023/04/23 07:50:11;;;;;;;1.60;1.25;;;;;;;;;;2050707;28;20047;-69
2023/04/23 07:51:31;;;;;;;5.65;1.40;;;;;;;;;;2051826;28;20031;-65
2023/04/23 07:52:50;;;;;;;2.25;1.20;;;;;;;;;;2047459;28;20031;-66
2023/04/23 07:54:10;;;;;;;2.13;0.90;;;;;;;;;;2052554;28;20560;-64
2023/04/23 07:55:29;;;;;;;2.47;1.38;;;;;;;;;;2051661;28;20042;-67